Startpagina
METAR-TAF:

METAR-TAF

Vliegvelden :

Luchthaven Tunis-Carthage

Tunis, Tunesië

breedte: 36-50N, lengte: 010-14E, hoogte: 3 m

Actueel weer

Dit bericht is 19 minuten geleden gemaakt, om 12:30 UTC
Wind 8 kt uit het zuiden, variërend tussen het zuidoosten en het zuidzuidwesten
Temperatuur 23°C
Vochtigheid 25%
Druk 1012 hPa
Zicht 10 km of meer
Weinig wolken op 3000 ft

METAR: DTTA 221230Z 18008KT 130V200 9999 FEW030 23/02 Q1012

Tijdstip: 13:49 (12:49 UTC)

Verwachting

Dit bericht is 1 uur en het 49 minuten geleden gemaakt, om 11:00 UTC
Verwachting geldig van 22 om 12 UTC tot 23 om 12 UTC
Wind 10 kt uit het zuiden
Zicht 10 km of meer
Weinig wolken op 3000 ft
Wijzigt naar
van 22 om 20 UTC tot 22 om 22 UTC
Wind 16 kt uit het zuiden

TAF: DTTA 221100Z 2212/2312 18010KT 9999 FEW030 BECMG 2220/2222 19016KT

Waarnemingen en weersverwachtingen van meer dan 4000 vliegvelden (METAR en TAF).

De beschikbare stations zijn de gele en rode punten op de kaart.

Ga met uw muis naar het station om de naam te zien.

Klik dan om waarnemingen en weersverwachtingen te zien.

kaart wijzigen: klik op de groene knoppen met een zwart kruis om in te zoomen, op de groene knop met een streepje om uit te zoomen of op de groene pijlen voor aangrenzende kaarten.


METAR-TAF: